createdAt,value
2017-09-05T00:02:27.838Z,7.63
2017-09-05T00:04:56.260Z,6.80
2017-09-05T00:07:28.500Z,6.83
2017-09-05T00:10:00.280Z,6.70
2017-09-05T00:12:40.228Z,6.77
2017-09-05T00:18:22.167Z,5.53
2017-09-05T00:20:50.024Z,6.00
2017-09-05T00:23:17.924Z,6.43
2017-09-05T00:25:45.827Z,7.40
2017-09-05T00:28:13.667Z,7.17
2017-09-05T00:30:41.483Z,6.20
2017-09-05T00:33:09.335Z,6.90
2017-09-05T00:35:37.164Z,5.90
2017-09-05T00:38:05.026Z,6.03
2017-09-05T00:40:32.861Z,6.63
2017-09-05T00:43:00.725Z,6.63
2017-09-05T00:45:28.628Z,6.10
2017-09-05T00:47:56.427Z,6.30
2017-09-05T00:50:24.294Z,5.53
2017-09-05T00:52:52.092Z,6.03
2017-09-05T00:55:19.949Z,6.80
2017-09-05T00:57:47.836Z,6.20
2017-09-05T01:00:15.711Z,5.77
2017-09-05T01:02:43.514Z,5.87
2017-09-05T01:05:11.402Z,6.30
2017-09-05T01:07:39.269Z,5.80
2017-09-05T01:10:07.152Z,6.20
2017-09-05T01:12:34.997Z,6.23
2017-09-05T01:15:02.947Z,6.57
2017-09-05T01:17:30.760Z,5.97
2017-09-05T01:19:59.113Z,6.30
2017-09-05T01:22:27.116Z,5.77
2017-09-05T01:24:55.009Z,6.10
2017-09-05T01:27:22.837Z,5.90
2017-09-05T01:29:50.680Z,5.40
2017-09-05T01:32:18.530Z,6.10
2017-09-05T01:34:46.437Z,7.00
2017-09-05T01:37:14.312Z,7.50
2017-09-05T01:39:42.245Z,7.93
2017-09-05T01:42:10.122Z,7.90
2017-09-05T01:44:37.922Z,7.40
2017-09-05T01:47:05.665Z,6.63
2017-09-05T01:49:33.466Z,6.73
2017-09-05T01:52:01.283Z,6.57
2017-09-05T01:54:29.128Z,6.27
2017-09-05T01:56:56.949Z,6.17
2017-09-05T01:59:24.715Z,6.20
2017-09-05T02:01:52.504Z,6.93
2017-09-05T02:04:20.357Z,6.00
2017-09-05T02:06:48.164Z,5.93
2017-09-05T02:09:16.000Z,5.70
2017-09-05T02:11:43.843Z,5.80
2017-09-05T02:14:11.684Z,5.10
2017-09-05T02:16:39.542Z,6.37
2017-09-05T02:19:07.402Z,6.30
2017-09-05T02:21:35.208Z,6.57
2017-09-05T02:24:03.034Z,6.03
2017-09-05T02:26:30.950Z,6.00
2017-09-05T02:28:58.700Z,7.27
2017-09-05T02:31:26.536Z,5.33
2017-09-05T02:33:54.416Z,6.10
2017-09-05T02:36:22.310Z,5.90
2017-09-05T02:38:50.118Z,6.63
2017-09-05T02:41:17.978Z,5.23
2017-09-05T02:43:45.780Z,6.23
2017-09-05T02:46:13.655Z,6.10
2017-09-05T02:48:41.468Z,6.23
2017-09-05T02:51:09.331Z,6.00
2017-09-05T02:53:37.141Z,5.40
2017-09-05T02:56:04.862Z,6.17
2017-09-05T02:58:32.700Z,5.17
2017-09-05T03:01:00.516Z,4.80
2017-09-05T03:03:28.369Z,4.87
2017-09-05T03:05:56.181Z,5.67
2017-09-05T03:08:23.939Z,5.33
2017-09-05T03:10:51.776Z,6.80
2017-09-05T03:13:19.555Z,6.37
2017-09-05T03:15:47.385Z,7.40
2017-09-05T03:18:15.133Z,5.93
2017-09-05T03:20:42.921Z,6.77
2017-09-05T03:23:10.795Z,5.20
2017-09-05T03:25:38.517Z,5.70
2017-09-05T03:28:06.379Z,5.83
2017-09-05T03:30:34.194Z,5.40
2017-09-05T03:33:02.026Z,5.33
2017-09-05T03:35:29.875Z,5.30
2017-09-05T03:37:57.693Z,6.73
2017-09-05T03:40:25.455Z,5.57
2017-09-05T03:42:53.265Z,5.60
2017-09-05T03:45:21.118Z,7.17
2017-09-05T03:47:48.938Z,5.60
2017-09-05T03:50:16.792Z,7.30
2017-09-05T03:52:44.592Z,7.03
2017-09-05T03:55:12.459Z,6.50
2017-09-05T03:57:40.281Z,5.90
2017-09-05T04:00:08.173Z,5.63
2017-09-05T04:02:36.018Z,5.63
2017-09-05T04:05:03.882Z,5.63
2017-09-05T04:07:31.686Z,6.10
2017-09-05T04:09:59.520Z,6.17
2017-09-05T04:12:27.397Z,5.87
2017-09-05T04:14:55.217Z,6.37
2017-09-05T04:17:23.073Z,6.80
2017-09-05T04:19:50.889Z,7.10
2017-09-05T04:22:18.736Z,7.60
2017-09-05T04:24:46.501Z,6.13
2017-09-05T04:27:14.407Z,5.70
2017-09-05T04:29:42.157Z,6.23
2017-09-05T04:32:10.064Z,6.20
2017-09-05T04:34:37.867Z,5.27
2017-09-05T04:37:05.739Z,5.40
2017-09-05T04:39:33.552Z,5.50
2017-09-05T04:42:01.418Z,5.77
2017-09-05T04:44:29.137Z,6.13
2017-09-05T04:46:56.882Z,5.97
2017-09-05T04:49:24.617Z,5.70
2017-09-05T04:51:52.333Z,7.30
2017-09-05T04:54:20.101Z,6.20
2017-09-05T04:56:47.857Z,6.50
2017-09-05T04:59:15.652Z,6.57
2017-09-05T05:01:43.369Z,6.47
2017-09-05T05:04:11.129Z,6.37
2017-09-05T05:06:38.851Z,6.50
2017-09-05T05:09:06.722Z,6.70
2017-09-05T05:11:34.433Z,6.20
2017-09-05T05:14:02.183Z,6.17
2017-09-05T05:16:29.893Z,5.67
2017-09-05T05:18:57.645Z,6.57
2017-09-05T05:21:25.373Z,6.73
2017-09-05T05:23:53.171Z,6.97
2017-09-05T05:26:20.886Z,6.90
2017-09-05T05:28:48.602Z,5.97
2017-09-05T05:31:16.399Z,6.30
2017-09-05T05:33:44.147Z,5.90
2017-09-05T05:36:11.903Z,5.37
2017-09-05T05:38:39.636Z,6.30
2017-09-05T05:41:07.385Z,6.97
2017-09-05T05:43:35.081Z,6.30
2017-09-05T05:46:02.869Z,7.47
2017-09-05T05:48:30.591Z,5.43
2017-09-05T05:50:58.339Z,5.77
2017-09-05T05:53:26.048Z,6.30
2017-09-05T05:55:53.796Z,5.30
2017-09-05T05:58:21.534Z,5.57
2017-09-05T06:00:49.294Z,5.93
2017-09-05T06:03:17.002Z,6.20
2017-09-05T06:05:44.744Z,7.10
2017-09-05T06:08:12.530Z,8.10
2017-09-05T06:10:40.257Z,6.63
2017-09-05T06:13:08.026Z,6.57
2017-09-05T06:15:35.757Z,6.63
2017-09-05T06:18:03.503Z,7.37
2017-09-05T06:20:31.489Z,7.83
2017-09-05T06:22:59.277Z,8.53
2017-09-05T06:25:26.995Z,8.90
2017-09-05T06:27:54.755Z,9.17
2017-09-05T06:30:22.478Z,10.27
2017-09-05T06:32:50.264Z,11.03
2017-09-05T06:35:17.997Z,11.67
2017-09-05T06:37:45.812Z,13.30
2017-09-05T06:40:13.536Z,12.10
2017-09-05T06:42:41.267Z,12.70
2017-09-05T06:45:09.044Z,12.60
2017-09-05T06:47:36.796Z,14.27
2017-09-05T06:50:04.570Z,13.30
2017-09-05T06:52:32.308Z,15.23
2017-09-05T06:55:00.116Z,12.33
2017-09-05T06:57:27.819Z,14.83
2017-09-05T06:59:55.617Z,14.73
2017-09-05T07:02:23.408Z,14.20
2017-09-05T07:04:51.288Z,16.13
2017-09-05T07:07:19.122Z,14.67
2017-09-05T07:09:46.933Z,13.57
2017-09-05T07:12:14.756Z,14.07
2017-09-05T07:14:43.946Z,14.00
2017-09-05T07:17:12.653Z,13.43
2017-09-05T07:19:40.851Z,14.33
2017-09-05T07:22:08.630Z,14.83
2017-09-05T07:24:36.404Z,14.20
2017-09-05T07:27:05.505Z,13.20
2017-09-05T07:29:34.976Z,13.17
2017-09-05T07:32:03.057Z,14.37
2017-09-05T07:34:30.801Z,13.63
2017-09-05T07:36:58.567Z,13.73
2017-09-05T07:39:26.335Z,12.60
2017-09-05T07:41:54.103Z,12.20
2017-09-05T07:44:21.874Z,13.17
2017-09-05T07:46:49.722Z,12.37
2017-09-05T07:49:17.561Z,12.03
2017-09-05T07:51:45.488Z,11.07
2017-09-05T07:54:13.701Z,10.40
2017-09-05T07:56:41.611Z,10.30
2017-09-05T08:01:45.254Z,10.10
2017-09-05T08:04:13.173Z,9.90
2017-09-05T08:06:41.223Z,9.60
2017-09-05T08:09:09.070Z,10.47
2017-09-05T08:11:37.066Z,10.63
2017-09-05T08:14:04.942Z,9.27
2017-09-05T08:16:32.928Z,9.00
2017-09-05T08:19:00.936Z,9.07
2017-09-05T08:21:28.803Z,8.70
2017-09-05T08:23:56.720Z,8.50
2017-09-05T08:26:24.611Z,8.43
2017-09-05T08:28:52.649Z,9.53
2017-09-05T08:31:20.526Z,9.03
2017-09-05T08:33:48.493Z,9.20
2017-09-05T08:36:16.439Z,8.50
2017-09-05T08:38:44.314Z,8.47
2017-09-05T08:41:12.152Z,8.83
2017-09-05T08:43:40.073Z,9.43
2017-09-05T08:46:08.129Z,9.60
2017-09-05T08:48:36.049Z,12.80
2017-09-05T08:51:03.962Z,13.63
2017-09-05T08:53:32.030Z,14.80
2017-09-05T08:55:59.980Z,14.50
2017-09-05T08:58:27.829Z,14.80
2017-09-05T09:00:55.842Z,14.70
2017-09-05T09:03:23.805Z,14.30
2017-09-05T09:05:51.822Z,14.47
2017-09-05T09:08:19.806Z,13.50
2017-09-05T09:10:47.850Z,13.60
2017-09-05T09:13:15.725Z,13.80
2017-09-05T09:15:43.646Z,14.20
2017-09-05T09:18:11.527Z,13.63
2017-09-05T09:20:39.447Z,14.47
2017-09-05T09:23:07.310Z,12.97
2017-09-05T09:25:35.269Z,11.73
2017-09-05T09:28:03.280Z,12.20
2017-09-05T09:30:31.278Z,13.20
2017-09-05T09:32:59.278Z,12.53
2017-09-05T09:35:27.229Z,13.33
2017-09-05T09:37:55.144Z,12.73
2017-09-05T09:40:23.052Z,12.67
2017-09-05T09:42:51.008Z,12.60
2017-09-05T09:45:18.876Z,12.70
2017-09-05T09:47:46.798Z,10.23
2017-09-05T09:50:14.675Z,10.63
2017-09-05T09:52:42.578Z,10.30
2017-09-05T09:55:10.562Z,11.40
2017-09-05T09:57:38.624Z,12.07
2017-09-05T10:00:06.596Z,11.13
2017-09-05T10:02:34.599Z,11.90
2017-09-05T10:05:02.686Z,11.03
2017-09-05T10:07:30.678Z,13.77
2017-09-05T10:09:58.672Z,13.80
2017-09-05T10:12:26.696Z,12.50
2017-09-05T10:14:54.766Z,14.33
2017-09-05T10:17:22.771Z,14.87
2017-09-05T10:19:50.788Z,15.40
2017-09-05T10:22:18.830Z,15.70
2017-09-05T10:24:46.854Z,17.23
2017-09-05T10:27:14.861Z,16.50
2017-09-05T10:29:42.887Z,15.80
2017-09-05T10:32:10.901Z,15.50
2017-09-05T10:34:38.918Z,15.10
2017-09-05T10:37:06.795Z,15.50
2017-09-05T10:39:34.763Z,15.30
2017-09-05T10:42:02.859Z,14.57
2017-09-05T10:44:30.964Z,14.60
2017-09-05T10:46:58.986Z,14.90
2017-09-05T10:49:26.963Z,14.53
2017-09-05T10:51:54.981Z,14.90
2017-09-05T10:54:22.951Z,13.70
2017-09-05T10:56:50.948Z,14.50
2017-09-05T10:59:18.928Z,13.00
2017-09-05T11:01:46.961Z,12.60
2017-09-05T11:04:14.910Z,12.20
2017-09-05T11:06:42.914Z,8.70
2017-09-05T11:09:10.769Z,10.47
2017-09-05T11:11:38.671Z,10.10
2017-09-05T11:14:06.615Z,8.43
2017-09-05T11:16:34.867Z,7.40
2017-09-05T11:19:03.066Z,7.87
2017-09-05T11:21:31.071Z,7.73
2017-09-05T11:23:59.096Z,7.10
2017-09-05T11:26:27.082Z,7.00
2017-09-05T11:28:55.135Z,7.90
2017-09-05T11:31:22.971Z,7.40
2017-09-05T11:33:50.956Z,7.70
2017-09-05T11:36:18.903Z,7.10
2017-09-05T11:38:46.929Z,8.13
2017-09-05T11:41:14.956Z,7.77
2017-09-05T11:43:42.946Z,8.20
2017-09-05T11:46:10.910Z,7.90
2017-09-05T11:48:38.911Z,8.10
2017-09-05T11:51:06.874Z,8.23
2017-09-05T11:53:34.869Z,7.87
2017-09-05T11:56:02.824Z,7.93
2017-09-05T11:58:30.822Z,7.27
2017-09-05T12:00:58.678Z,6.60
2017-09-05T12:03:26.542Z,7.00
2017-09-05T12:05:54.422Z,6.90
2017-09-05T12:08:22.279Z,7.07
2017-09-05T12:10:50.402Z,6.33
2017-09-05T12:13:18.327Z,7.43
2017-09-05T12:15:46.227Z,6.83
2017-09-05T12:18:14.107Z,7.27
2017-09-05T12:20:42.022Z,7.13
2017-09-05T12:23:09.979Z,7.20
2017-09-05T12:25:38.077Z,7.80
2017-09-05T12:28:05.921Z,8.10
2017-09-05T12:30:33.816Z,7.70
2017-09-05T12:33:01.705Z,7.07
2017-09-05T12:35:29.629Z,7.50
2017-09-05T12:37:57.521Z,7.10
2017-09-05T12:40:25.473Z,7.63
2017-09-05T12:42:53.303Z,6.97
2017-09-05T12:45:21.137Z,6.70
2017-09-05T12:47:49.065Z,7.13
2017-09-05T12:50:16.915Z,7.00
2017-09-05T12:52:44.829Z,8.03
2017-09-05T12:55:12.700Z,6.23
2017-09-05T12:57:40.583Z,8.27
2017-09-05T13:00:08.473Z,6.83
2017-09-05T13:02:36.369Z,6.90
2017-09-05T13:05:04.235Z,7.03
2017-09-05T13:07:32.109Z,6.70
2017-09-05T13:10:00.043Z,6.87
2017-09-05T13:12:27.934Z,8.77
2017-09-05T13:14:55.852Z,7.70
2017-09-05T13:17:23.744Z,6.67
2017-09-05T13:19:51.623Z,7.40
2017-09-05T13:22:19.477Z,6.50
2017-09-05T13:24:47.392Z,7.20
2017-09-05T13:27:15.268Z,6.33
2017-09-05T13:29:43.291Z,6.33
2017-09-05T13:32:11.147Z,6.50
2017-09-05T13:34:39.165Z,6.10
2017-09-05T13:37:07.115Z,7.17
2017-09-05T13:39:35.128Z,7.90
2017-09-05T13:42:03.118Z,8.73
2017-09-05T13:44:31.147Z,7.47
2017-09-05T13:46:59.102Z,6.97
2017-09-05T13:49:27.127Z,7.93
2017-09-05T13:51:55.084Z,7.70
2017-09-05T13:54:23.079Z,8.03
2017-09-05T13:56:51.081Z,8.00
2017-09-05T13:59:19.033Z,7.80
2017-09-05T14:01:47.040Z,7.70
2017-09-05T14:04:15.034Z,7.23
2017-09-05T14:06:43.069Z,6.67
2017-09-05T14:09:11.034Z,8.40
2017-09-05T14:11:40.992Z,7.20
2017-09-05T14:14:08.948Z,8.80
2017-09-05T14:16:36.959Z,8.77
2017-09-05T14:19:04.933Z,8.30
2017-09-05T14:21:32.952Z,8.57
2017-09-05T14:24:00.936Z,9.90
2017-09-05T14:26:29.026Z,9.60
2017-09-05T14:28:57.068Z,9.83
2017-09-05T14:31:25.115Z,9.77
2017-09-05T14:33:53.044Z,9.87
2017-09-05T14:36:20.967Z,10.50
2017-09-05T14:38:48.960Z,10.30
2017-09-05T14:41:16.936Z,10.00
2017-09-05T14:43:44.876Z,9.20
2017-09-05T14:46:12.983Z,9.00
2017-09-05T14:48:41.002Z,10.20
2017-09-05T14:51:08.889Z,10.50
2017-09-05T14:53:36.792Z,9.30
2017-09-05T14:56:04.697Z,9.27
2017-09-05T14:58:32.658Z,9.20
2017-09-05T15:01:00.562Z,9.20
2017-09-05T15:03:28.539Z,9.80
2017-09-05T15:05:56.516Z,8.97
2017-09-05T15:08:24.400Z,9.10
2017-09-05T15:10:52.412Z,8.63
2017-09-05T15:13:20.293Z,8.20
2017-09-05T15:15:48.388Z,8.30
2017-09-05T15:18:16.367Z,8.30
2017-09-05T15:20:44.406Z,8.40
2017-09-05T15:23:12.362Z,8.60
2017-09-05T15:25:40.410Z,8.70
2017-09-05T15:28:08.375Z,8.20
2017-09-05T15:30:36.450Z,8.60
2017-09-05T15:33:04.359Z,8.03
2017-09-05T15:35:32.405Z,8.50
2017-09-05T15:38:00.379Z,8.27
2017-09-05T15:40:28.397Z,7.90
2017-09-05T15:42:56.352Z,8.00
2017-09-05T15:45:24.369Z,8.40
2017-09-05T15:47:52.398Z,9.17
2017-09-05T15:50:20.366Z,9.50
2017-09-05T15:52:48.385Z,9.00
2017-09-05T15:55:16.365Z,8.93
2017-09-05T15:57:44.372Z,9.23
2017-09-05T16:00:12.368Z,8.90
2017-09-05T16:02:40.366Z,8.67
2017-09-05T16:05:08.258Z,8.07
2017-09-05T16:07:36.287Z,8.33
2017-09-05T16:10:04.166Z,9.00
2017-09-05T16:12:32.233Z,8.60
2017-09-05T16:15:00.192Z,10.50
2017-09-05T16:17:28.237Z,9.20
2017-09-05T16:19:56.239Z,9.40
2017-09-05T16:22:24.286Z,8.43
2017-09-05T16:24:52.318Z,9.20
2017-09-05T16:27:20.475Z,9.70
2017-09-05T16:29:48.669Z,8.43
2017-09-05T16:32:16.793Z,7.90
2017-09-05T16:34:44.791Z,8.93
2017-09-05T16:37:12.757Z,8.43
2017-09-05T16:39:40.786Z,8.93
2017-09-05T16:42:08.780Z,9.37
2017-09-05T16:44:36.828Z,8.93
2017-09-05T16:47:04.798Z,8.97
2017-09-05T16:49:32.856Z,8.37
2017-09-05T16:52:00.868Z,8.20
2017-09-05T16:54:28.896Z,8.70
2017-09-05T16:56:56.793Z,9.40
2017-09-05T16:59:24.799Z,8.97
2017-09-05T17:01:52.764Z,9.60
2017-09-05T17:04:20.750Z,8.90
2017-09-05T17:06:48.809Z,10.17
2017-09-05T17:09:16.724Z,9.57
2017-09-05T17:11:44.794Z,9.33
2017-09-05T17:14:12.793Z,9.00
2017-09-05T17:16:40.789Z,9.63
2017-09-05T17:19:08.894Z,9.80
2017-09-05T17:21:36.958Z,10.03
2017-09-05T17:24:04.922Z,9.87
2017-09-05T17:26:33.039Z,9.70
2017-09-05T17:29:01.057Z,9.60
2017-09-05T17:31:29.128Z,11.20
2017-09-05T17:33:57.102Z,10.77
2017-09-05T17:36:25.095Z,10.47
2017-09-05T17:38:53.095Z,9.70
2017-09-05T17:41:21.120Z,9.90
2017-09-05T17:43:49.084Z,10.40
2017-09-05T17:46:17.082Z,10.33
2017-09-05T17:48:45.071Z,11.13
2017-09-05T17:51:13.043Z,10.50
2017-09-05T17:53:41.089Z,10.47
2017-09-05T17:56:09.086Z,10.80
2017-09-05T17:58:37.138Z,10.23
2017-09-05T18:01:05.131Z,10.90
2017-09-05T18:03:33.166Z,10.00
2017-09-05T18:06:01.171Z,11.00
2017-09-05T18:08:29.190Z,9.93
2017-09-05T18:10:57.180Z,11.23
2017-09-05T18:13:25.261Z,11.03
2017-09-05T18:15:53.284Z,11.17
2017-09-05T18:18:21.279Z,10.83
2017-09-05T18:20:49.319Z,11.60
2017-09-05T18:23:17.317Z,11.80
2017-09-05T18:25:45.193Z,10.73
2017-09-05T18:28:13.113Z,11.00
2017-09-05T18:30:40.998Z,11.90
2017-09-05T18:33:08.935Z,11.90
2017-09-05T18:35:36.796Z,12.63
2017-09-05T18:38:04.659Z,11.47
2017-09-05T18:40:32.551Z,11.20
2017-09-05T18:43:00.530Z,11.37
2017-09-05T18:45:28.562Z,11.30
2017-09-05T18:47:56.541Z,10.93
2017-09-05T18:50:24.714Z,11.63
2017-09-05T18:52:52.719Z,11.23
2017-09-05T18:55:20.676Z,11.00
2017-09-05T18:57:48.667Z,10.30
2017-09-05T19:00:16.692Z,10.90
2017-09-05T19:02:44.564Z,11.53
2017-09-05T19:05:12.453Z,10.63
2017-09-05T19:07:40.493Z,11.00
2017-09-05T19:10:08.346Z,10.90
2017-09-05T19:12:36.358Z,11.80
2017-09-05T19:15:04.328Z,11.43
2017-09-05T19:17:32.368Z,11.53
2017-09-05T19:20:00.246Z,11.53
2017-09-05T19:22:28.203Z,11.43
2017-09-05T19:24:56.152Z,11.93
2017-09-05T19:27:24.142Z,12.70
2017-09-05T19:29:52.023Z,12.40
2017-09-05T19:32:19.957Z,12.10
2017-09-05T19:34:47.821Z,10.97
2017-09-05T19:37:15.837Z,12.00
2017-09-05T19:39:43.874Z,10.03
2017-09-05T19:42:11.855Z,12.00
2017-09-05T19:44:39.778Z,11.07
2017-09-05T19:47:07.760Z,11.50
2017-09-05T19:49:35.729Z,11.97
2017-09-05T19:52:03.708Z,11.50
2017-09-05T19:54:31.627Z,11.03
2017-09-05T19:56:59.505Z,11.20
2017-09-05T19:59:27.425Z,12.20
2017-09-05T20:01:55.326Z,11.67
2017-09-05T20:04:23.282Z,11.53
2017-09-05T20:06:51.161Z,11.93
2017-09-05T20:09:19.039Z,11.50
2017-09-05T20:11:46.952Z,10.77
2017-09-05T20:14:14.835Z,12.00
2017-09-05T20:16:42.832Z,11.90
2017-09-05T20:19:10.710Z,11.57
2017-09-05T20:21:38.622Z,11.43
2017-09-05T20:24:06.466Z,11.43
2017-09-05T20:26:34.384Z,13.10
2017-09-05T20:29:02.260Z,12.90
2017-09-05T20:31:30.281Z,13.30
2017-09-05T20:33:58.179Z,10.90
2017-09-05T20:36:26.103Z,12.30
2017-09-05T20:38:53.985Z,12.47
2017-09-05T20:41:21.852Z,12.27
2017-09-05T20:43:49.812Z,12.50
2017-09-05T20:46:17.748Z,11.73
2017-09-05T20:48:45.749Z,11.90
2017-09-05T20:51:13.628Z,11.70
2017-09-05T20:53:41.575Z,11.40
2017-09-05T20:56:09.491Z,11.50
2017-09-05T20:58:37.436Z,11.67
2017-09-05T21:01:05.322Z,12.03
2017-09-05T21:03:33.338Z,10.70
2017-09-05T21:06:01.299Z,11.50
2017-09-05T21:08:29.322Z,11.17
2017-09-05T21:10:57.275Z,11.57
2017-09-05T21:13:25.274Z,12.00
2017-09-05T21:15:53.244Z,11.73
2017-09-05T21:18:21.279Z,11.60
2017-09-05T21:20:49.360Z,11.40
2017-09-05T21:23:17.393Z,11.20
2017-09-05T21:25:45.387Z,11.10
2017-09-05T21:28:13.305Z,12.80
2017-09-05T21:30:41.159Z,12.40
2017-09-05T21:33:09.184Z,11.93
2017-09-05T21:35:37.119Z,12.60
2017-09-05T21:38:04.957Z,12.00
2017-09-05T21:40:32.966Z,12.20
2017-09-05T21:43:00.822Z,11.63
2017-09-05T21:45:28.814Z,12.77
2017-09-05T21:47:56.758Z,11.80
2017-09-05T21:50:24.755Z,13.97
2017-09-05T21:52:52.726Z,14.27
2017-09-05T21:55:20.776Z,13.53
2017-09-05T21:57:48.746Z,12.90
2017-09-05T22:00:16.749Z,13.67
2017-09-05T22:02:44.719Z,12.90
2017-09-05T22:05:12.706Z,13.60
2017-09-05T22:07:40.652Z,13.70
2017-09-05T22:10:08.667Z,13.20
2017-09-05T22:12:36.633Z,12.70
2017-09-05T22:15:10.139Z,13.30
2017-09-05T22:17:38.134Z,12.63
2017-09-05T22:20:11.541Z,12.53
2017-09-05T22:22:45.213Z,12.80
2017-09-05T22:25:18.791Z,12.70
2017-09-05T22:27:52.256Z,12.90
2017-09-05T22:30:20.269Z,12.10
2017-09-05T22:32:48.206Z,12.83
2017-09-05T22:35:16.236Z,12.53
2017-09-05T22:37:44.172Z,12.90
2017-09-05T22:40:12.164Z,12.87
2017-09-05T22:42:40.152Z,13.70
2017-09-05T22:45:09.044Z,13.20
2017-09-05T22:47:41.587Z,12.83
2017-09-05T22:50:09.629Z,12.27
2017-09-05T22:52:37.628Z,11.77
2017-09-05T22:55:06.594Z,12.07
2017-09-05T22:57:35.101Z,12.87
2017-09-05T23:00:06.054Z,12.60
2017-09-05T23:05:10.614Z,11.90
2017-09-05T23:07:39.661Z,11.83
2017-09-05T23:10:09.752Z,12.20
2017-09-05T23:12:39.562Z,12.00
2017-09-05T23:15:07.883Z,12.40
2017-09-05T23:17:38.316Z,12.13
2017-09-05T23:20:08.875Z,12.23
2017-09-05T23:22:37.001Z,11.60
2017-09-05T23:25:05.774Z,12.40
2017-09-05T23:27:36.330Z,11.90
2017-09-05T23:30:05.317Z,12.07
2017-09-05T23:32:36.458Z,12.10
2017-09-05T23:35:06.067Z,11.57
2017-09-05T23:37:38.940Z,12.10
2017-09-05T23:40:08.171Z,12.07
2017-09-05T23:42:38.320Z,11.70
2017-09-05T23:45:06.667Z,12.40
2017-09-05T23:47:35.353Z,12.93
2017-09-05T23:50:03.849Z,13.37
2017-09-05T23:52:32.306Z,12.73
2017-09-05T23:55:00.387Z,12.30
2017-09-05T23:57:30.077Z,12.80
2017-09-05T23:59:59.879Z,12.50
